Time;durP1;ratioP1;P1;durP2;ratioP2;P2;SDS_P1;SDS_P2;PMS_P1;PMS_P2;Temp;Humidity;BMP_temperature;BMP_pressure;BME280_temperature;BME280_humidity;BME280_pressure;Samples;Min_cycle;Max_cycle;Signal;HPM_P1;HPM_P2
2023/10/15 00:01:45;;;;;;;6.32;1.73;;;9.50;87.20;;;;;;4999604;28;20046;-73
2023/10/15 00:04:12;;;;;;;3.70;1.40;;;9.50;87.40;;;;;;4997610;28;20096;-77
2023/10/15 00:06:41;;;;;;;3.97;1.58;;;9.50;87.60;;;;;;4993043;28;20049;-74
2023/10/15 00:09:07;;;;;;;6.28;1.50;;;9.50;87.60;;;;;;5000288;28;20029;-77
2023/10/15 00:11:33;;;;;;;5.10;1.40;;;9.40;87.90;;;;;;4994915;28;20045;-80
2023/10/15 00:13:59;;;;;;;8.55;2.35;;;9.30;88.00;;;;;;4996864;28;20022;-74
2023/10/15 00:16:26;;;;;;;5.72;2.40;;;9.30;88.20;;;;;;4990190;28;20026;-75
2023/10/15 00:18:51;;;;;;;4.47;2.13;;;9.20;88.60;;;;;;5000138;28;20045;-75
2023/10/15 00:21:17;;;;;;;7.10;2.30;;;9.10;88.80;;;;;;4993174;28;20030;-73
2023/10/15 00:23:46;;;;;;;6.47;2.70;;;9.10;89.10;;;;;;5000278;28;20073;-76
2023/10/15 00:26:14;;;;;;;7.40;2.78;;;9.10;89.50;;;;;;5001421;28;20034;-79
2023/10/15 00:28:40;;;;;;;9.07;3.50;;;9.10;89.80;;;;;;4997759;28;20022;-76
2023/10/15 00:31:10;;;;;;;8.55;2.72;;;9.00;89.90;;;;;;4999838;28;20042;-76
2023/10/15 00:33:42;;;;;;;7.45;3.53;;;9.00;90.20;;;;;;5001721;28;20030;-74
2023/10/15 00:36:09;;;;;;;7.38;3.10;;;8.90;90.40;;;;;;4998013;28;20405;-73
2023/10/15 00:38:36;;;;;;;5.80;2.90;;;8.80;90.60;;;;;;5002922;28;20022;-73
2023/10/15 00:41:08;;;;;;;8.40;3.17;;;8.80;90.90;;;;;;5002734;28;20034;-78
2023/10/15 00:43:34;;;;;;;7.05;3.25;;;8.70;91.00;;;;;;4994815;28;20058;-77
2023/10/15 00:46:03;;;;;;;5.05;2.92;;;8.70;91.20;;;;;;4992832;28;20073;-74
2023/10/15 00:48:33;;;;;;;5.75;2.95;;;8.70;91.30;;;;;;5001649;28;20117;-75
2023/10/15 00:51:00;;;;;;;7.55;3.30;;;8.60;91.40;;;;;;4998514;28;20061;-77
2023/10/15 00:53:28;;;;;;;7.22;2.90;;;8.60;91.70;;;;;;5001909;28;20116;-74
2023/10/15 00:56:03;;;;;;;6.43;2.80;;;8.60;91.70;;;;;;4998115;28;20476;-75
2023/10/15 00:58:38;;;;;;;7.38;2.40;;;8.60;91.70;;;;;;4999793;28;20168;-73
2023/10/15 01:03:54;;;;;;;9.40;3.97;;;8.70;90.90;;;;;;4996545;28;20155;-79
2023/10/15 01:06:35;;;;;;;10.00;4.70;;;8.80;89.90;;;;;;4997459;28;20033;-80
2023/10/15 01:09:18;;;;;;;9.27;3.65;;;8.90;89.60;;;;;;4997591;28;20021;-74
2023/10/15 01:12:31;;;;;;;8.27;3.42;;;9.00;89.40;;;;;;4994599;28;20084;-74
2023/10/15 01:14:44;;;;;;;6.22;2.58;;;9.10;89.40;;;;;;4999844;28;20488;-78
2023/10/15 01:17:09;;;;;;;8.55;2.40;;;9.10;89.70;;;;;;4998772;28;20029;-77
2023/10/15 01:19:35;;;;;;;6.10;2.97;;;9.20;89.70;;;;;;5002546;28;20092;-73
2023/10/15 01:22:17;;;;;;;7.78;2.88;;;9.20;89.90;;;;;;5003357;28;20030;-76
2023/10/15 01:24:45;;;;;;;7.80;2.65;;;9.20;89.90;;;;;;4997908;28;20054;-75
2023/10/15 01:27:11;;;;;;;5.30;2.30;;;9.30;90.20;;;;;;5003563;28;20037;-76
2023/10/15 01:29:42;;;;;;;8.18;2.40;;;9.30;90.50;;;;;;5001888;28;20029;-75
2023/10/15 01:32:13;;;;;;;6.03;2.63;;;9.30;90.70;;;;;;4996432;28;20037;-78
2023/10/15 01:34:45;;;;;;;7.97;2.28;;;9.40;91.00;;;;;;5000008;28;20029;-74
2023/10/15 01:37:44;;;;;;;8.45;2.67;;;9.40;91.20;;;;;;5001469;28;20835;-74
2023/10/15 01:40:24;;;;;;;5.88;2.40;;;9.40;91.40;;;;;;4995244;28;20409;-81
2023/10/15 01:42:53;;;;;;;12.95;3.50;;;9.40;91.40;;;;;;4994134;28;20473;-74
2023/10/15 01:45:30;;;;;;;9.32;3.25;;;9.30;91.40;;;;;;4997238;28;20077;-75
2023/10/15 01:48:05;;;;;;;10.82;3.50;;;9.20;91.60;;;;;;4995977;28;20033;-78
2023/10/15 01:50:46;;;;;;;9.00;3.22;;;9.20;91.60;;;;;;5002358;28;20026;-80
2023/10/15 01:53:11;;;;;;;9.77;3.50;;;9.20;91.70;;;;;;4995275;28;20087;-80
2023/10/15 01:55:45;;;;;;;10.23;3.83;;;9.20;91.70;;;;;;4997427;28;20034;-73
2023/10/15 01:58:12;;;;;;;9.05;4.32;;;9.20;91.80;;;;;;5001133;28;20041;-75
2023/10/15 02:03:06;;;;;;;8.63;3.10;;;9.10;92.10;;;;;;4996264;28;20065;-79
2023/10/15 02:05:41;;;;;;;8.05;3.33;;;9.20;92.10;;;;;;4990550;28;20508;-73
2023/10/15 02:08:13;;;;;;;9.13;3.60;;;9.20;92.10;;;;;;4998867;28;20026;-75
2023/10/15 02:10:46;;;;;;;7.82;3.63;;;9.20;91.90;;;;;;5001783;28;20030;-74
2023/10/15 02:13:16;;;;;;;9.23;3.42;;;9.30;91.70;;;;;;4995085;28;20240;-78
2023/10/15 02:15:45;;;;;;;8.43;3.45;;;9.30;91.40;;;;;;5003733;28;20036;-79
2023/10/15 02:18:14;;;;;;;6.55;2.58;;;9.30;91.10;;;;;;4996129;28;20022;-72
2023/10/15 02:23:18;;;;;;;5.35;2.10;;;9.10;91.20;;;;;;4996751;28;20040;-73
2023/10/15 02:25:57;;;;;;;5.38;1.85;;;9.10;91.40;;;;;;5000534;28;20139;-77
2023/10/15 02:28:27;;;;;;;4.97;1.70;;;9.00;91.60;;;;;;5000297;28;20472;-80
2023/10/15 02:33:29;;;;;;;6.95;1.80;;;8.90;91.80;;;;;;4994007;28;20073;-73
2023/10/15 02:35:59;;;;;;;5.03;1.60;;;8.80;91.80;;;;;;4997553;28;20077;-72
2023/10/15 02:38:34;;;;;;;5.68;2.20;;;8.80;92.00;;;;;;5000008;28;20030;-77
2023/10/15 02:41:05;;;;;;;4.65;2.05;;;8.80;92.10;;;;;;4997650;28;20038;-78
2023/10/15 02:43:32;;;;;;;6.25;1.80;;;8.70;92.30;;;;;;4999862;28;20102;-75
2023/10/15 02:46:00;;;;;;;4.50;2.25;;;8.70;92.40;;;;;;4996773;28;20042;-74
2023/10/15 02:48:29;;;;;;;5.32;1.75;;;8.70;92.40;;;;;;5001248;28;20077;-80
2023/10/15 02:51:00;;;;;;;6.15;1.90;;;8.60;92.60;;;;;;4997925;28;20165;-74
2023/10/15 02:53:40;;;;;;;5.80;1.80;;;8.60;92.80;;;;;;5000117;28;20034;-73
2023/10/15 02:56:11;;;;;;;4.47;1.80;;;8.60;92.80;;;;;;5000451;28;20041;-72
2023/10/15 02:58:38;;;;;;;6.57;2.10;;;8.60;92.90;;;;;;4998860;28;20496;-74
2023/10/15 03:01:24;;;;;;;3.30;1.92;;;8.60;93.10;;;;;;4997789;28;20126;-74
2023/10/15 03:03:52;;;;;;;5.30;2.25;;;8.50;93.00;;;;;;4999363;28;20065;-73
2023/10/15 03:06:18;;;;;;;7.07;2.67;;;8.50;93.00;;;;;;4996816;28;20029;-77
2023/10/15 03:08:47;;;;;;;5.30;2.30;;;8.40;93.00;;;;;;5000070;28;20034;-75
2023/10/15 03:11:14;;;;;;;5.95;2.33;;;8.40;93.10;;;;;;4991345;28;20060;-82
2023/10/15 03:13:55;;;;;;;7.53;2.70;;;8.30;93.20;;;;;;4994121;28;20510;-78
2023/10/15 03:16:35;;;;;;;5.75;2.40;;;8.30;93.40;;;;;;4994478;28;20393;-74
2023/10/15 03:19:09;;;;;;;6.55;2.80;;;8.30;93.50;;;;;;5001523;28;20548;-76
2023/10/15 03:21:39;;;;;;;6.05;2.38;;;8.20;93.50;;;;;;4997860;28;20068;-75
2023/10/15 03:24:05;;;;;;;6.80;2.80;;;8.20;93.60;;;;;;5002087;28;20084;-76
2023/10/15 03:26:33;;;;;;;6.05;3.00;;;8.30;93.70;;;;;;4998987;28;20117;-75
2023/10/15 03:28:59;;;;;;;7.68;3.67;;;8.30;93.60;;;;;;4999951;28;20460;-75
2023/10/15 03:31:30;;;;;;;7.18;2.90;;;8.30;93.60;;;;;;4998419;28;20021;-73
2023/10/15 03:36:42;;;;;;;10.43;3.72;;;8.20;93.70;;;;;;4997743;28;20131;-74
2023/10/15 03:39:15;;;;;;;6.07;3.17;;;8.30;93.70;;;;;;5000123;28;20030;-76
2023/10/15 03:41:49;;;;;;;7.47;3.42;;;8.20;93.70;;;;;;5000109;28;20041;-74
2023/10/15 03:44:23;;;;;;;8.53;3.70;;;8.20;93.70;;;;;;4997480;28;20026;-75
2023/10/15 03:46:49;;;;;;;8.63;3.88;;;8.20;93.80;;;;;;4995888;28;20484;-80
2023/10/15 03:49:15;;;;;;;9.13;3.88;;;8.10;93.70;;;;;;5000543;28;20033;-76
2023/10/15 03:51:48;;;;;;;5.78;3.25;;;8.10;93.70;;;;;;5003384;28;20034;-84
2023/10/15 03:54:14;;;;;;;7.60;3.63;;;8.10;93.80;;;;;;5000479;28;20107;-73
2023/10/15 03:56:43;;;;;;;7.70;3.63;;;8.10;93.90;;;;;;4997129;28;20086;-73
2023/10/15 03:59:12;;;;;;;10.52;4.07;;;8.10;93.90;;;;;;5001979;28;20125;-74
2023/10/15 04:01:43;;;;;;;9.95;3.75;;;8.00;93.90;;;;;;5004535;28;20041;-74
2023/10/15 04:04:09;;;;;;;8.43;3.47;;;8.00;93.90;;;;;;5007287;28;20417;-79
2023/10/15 04:06:35;;;;;;;7.68;3.60;;;8.00;93.90;;;;;;4996176;28;20117;-74
2023/10/15 04:11:31;;;;;;;10.30;3.85;;;8.00;93.70;;;;;;5003055;28;20468;-77
2023/10/15 04:13:58;;;;;;;7.22;2.90;;;8.00;93.70;;;;;;5003204;28;20042;-75
2023/10/15 04:16:24;;;;;;;8.73;3.20;;;8.00;93.70;;;;;;5001771;28;20100;-76
2023/10/15 04:18:49;;;;;;;6.65;3.00;;;8.00;93.60;;;;;;5006970;28;20026;-78
2023/10/15 04:21:16;;;;;;;9.23;3.90;;;7.90;93.60;;;;;;5002674;28;20033;-75
2023/10/15 04:23:49;;;;;;;7.55;3.10;;;7.90;93.70;;;;;;5004985;28;20041;-74
2023/10/15 04:26:14;;;;;;;7.25;2.92;;;7.90;93.60;;;;;;4999695;28;20156;-78
2023/10/15 04:28:40;;;;;;;8.65;3.58;;;7.90;93.60;;;;;;5006817;28;20484;-74
2023/10/15 04:31:20;;;;;;;9.25;2.90;;;7.90;93.60;;;;;;5002633;28;20034;-74
2023/10/15 04:33:50;;;;;;;10.52;3.47;;;7.90;93.60;;;;;;5002669;28;20036;-78
2023/10/15 04:36:16;;;;;;;7.57;3.42;;;7.90;93.70;;;;;;5002674;28;20503;-80
2023/10/15 04:38:42;;;;;;;7.80;3.38;;;7.90;93.70;;;;;;5002729;28;20026;-77
2023/10/15 04:41:10;;;;;;;8.27;3.92;;;7.80;93.70;;;;;;5000311;28;20085;-74
2023/10/15 04:43:45;;;;;;;14.05;4.35;;;7.80;93.80;;;;;;5004166;28;20030;-76
2023/10/15 04:46:25;;;;;;;11.88;4.10;;;7.80;93.90;;;;;;5005656;28;20129;-75
2023/10/15 04:48:51;;;;;;;9.65;3.88;;;7.80;93.80;;;;;;5001742;28;20041;-79
2023/10/15 04:51:18;;;;;;;10.18;4.10;;;7.80;93.80;;;;;;5002817;28;20038;-74
2023/10/15 04:53:50;;;;;;;10.75;4.45;;;7.80;93.70;;;;;;5000618;28;20046;-77
2023/10/15 04:56:16;;;;;;;11.00;3.60;;;7.70;93.70;;;;;;4999490;28;20576;-78
2023/10/15 04:58:42;;;;;;;7.78;3.17;;;7.70;93.60;;;;;;5003000;28;20068;-78
2023/10/15 05:01:08;;;;;;;9.90;3.15;;;7.70;93.60;;;;;;5002331;28;20053;-76
2023/10/15 05:03:36;;;;;;;8.15;3.10;;;7.70;93.50;;;;;;5001823;28;20572;-81
2023/10/15 05:06:10;;;;;;;8.90;3.38;;;7.70;93.50;;;;;;4997610;28;20038;-76
2023/10/15 05:08:36;;;;;;;10.05;3.25;;;7.60;93.40;;;;;;5004592;28;20026;-74
2023/10/15 05:11:04;;;;;;;7.65;2.72;;;7.60;93.30;;;;;;5001384;28;20041;-74
2023/10/15 05:13:31;;;;;;;6.50;2.83;;;7.60;93.30;;;;;;5005235;28;20041;-72
2023/10/15 05:15:57;;;;;;;8.38;3.20;;;7.60;93.20;;;;;;4999636;28;20049;-74
2023/10/15 05:18:22;;;;;;;10.00;3.00;;;7.60;93.00;;;;;;5004731;28;20022;-78
2023/10/15 05:20:49;;;;;;;11.48;3.33;;;7.60;92.90;;;;;;5002717;28;20117;-72
2023/10/15 05:23:17;;;;;;;7.53;3.42;;;7.60;92.70;;;;;;5002394;28;20026;-72
2023/10/15 05:25:42;;;;;;;4.35;2.33;;;7.60;92.60;;;;;;4998896;28;20052;-77
2023/10/15 05:28:09;;;;;;;6.53;2.50;;;7.60;92.50;;;;;;5003203;28;20101;-74
2023/10/15 05:30:35;;;;;;;4.90;2.28;;;7.60;92.30;;;;;;4990064;28;20034;-73
2023/10/15 05:33:01;;;;;;;6.72;2.72;;;7.50;92.10;;;;;;5003738;28;20495;-77
2023/10/15 05:35:29;;;;;;;6.93;2.75;;;7.60;92.00;;;;;;4998783;28;20038;-72
2023/10/15 05:37:55;;;;;;;7.45;2.58;;;7.60;91.80;;;;;;5003726;28;20038;-75
2023/10/15 05:40:24;;;;;;;7.50;2.95;;;7.60;91.70;;;;;;4998014;28;20154;-76
2023/10/15 05:42:51;;;;;;;5.97;2.10;;;7.60;91.50;;;;;;4998074;28;20057;-73
2023/10/15 05:45:17;;;;;;;7.68;2.30;;;7.60;91.20;;;;;;4997893;28;20045;-76
2023/10/15 05:47:43;;;;;;;9.07;2.28;;;7.60;91.30;;;;;;4993323;28;20121;-77
2023/10/15 05:50:10;;;;;;;7.45;2.50;;;7.60;91.20;;;;;;5001323;28;20062;-76
2023/10/15 05:52:35;;;;;;;6.70;2.42;;;7.60;91.20;;;;;;5005416;28;20024;-74
2023/10/15 05:55:02;;;;;;;6.97;2.35;;;7.60;91.30;;;;;;5005878;28;20041;-72
2023/10/15 05:57:28;;;;;;;7.15;2.60;;;7.60;91.40;;;;;;5004481;28;20125;-74
2023/10/15 05:59:56;;;;;;;6.95;2.40;;;7.50;91.20;;;;;;5005553;28;20491;-80
2023/10/15 06:02:22;;;;;;;8.40;1.90;;;7.50;91.20;;;;;;4999070;28;20064;-75
2023/10/15 06:04:48;;;;;;;8.15;2.40;;;7.50;91.30;;;;;;4998859;28;20473;-75
2023/10/15 06:07:15;;;;;;;9.18;2.80;;;7.40;91.40;;;;;;5010831;28;20026;-75
2023/10/15 06:09:44;;;;;;;6.05;2.38;;;7.40;91.40;;;;;;5001176;28;20068;-74
2023/10/15 06:12:10;;;;;;;8.32;2.58;;;7.30;91.50;;;;;;5007600;28;20346;-72
2023/10/15 06:14:36;;;;;;;8.48;3.33;;;7.30;91.60;;;;;;5001916;28;20025;-78
2023/10/15 06:17:02;;;;;;;12.75;3.05;;;7.30;91.70;;;;;;5005345;28;20034;-73
2023/10/15 06:19:30;;;;;;;10.55;4.07;;;7.30;91.60;;;;;;4998527;28;20026;-74
2023/10/15 06:21:56;;;;;;;10.13;3.55;;;7.30;91.70;;;;;;5003676;28;20026;-75
2023/10/15 06:24:23;;;;;;;8.60;3.58;;;7.30;91.80;;;;;;5001399;28;20559;-73
2023/10/15 06:26:49;;;;;;;7.38;3.53;;;7.20;91.90;;;;;;5009875;28;20778;-74
2023/10/15 06:29:15;;;;;;;10.20;3.70;;;7.30;91.90;;;;;;5000051;28;20026;-76
2023/10/15 06:31:41;;;;;;;10.75;4.03;;;7.20;92.00;;;;;;5000187;28;20030;-73
2023/10/15 06:34:06;;;;;;;10.65;5.32;;;7.20;92.10;;;;;;4996564;28;20034;-82
2023/10/15 06:36:33;;;;;;;11.27;6.35;;;7.30;92.20;;;;;;4993295;28;20069;-75
2023/10/15 06:39:00;;;;;;;15.20;5.97;;;7.30;92.20;;;;;;4993579;28;20345;-76
2023/10/15 06:41:26;;;;;;;11.30;5.40;;;7.40;92.20;;;;;;4995363;28;20041;-78
2023/10/15 06:43:52;;;;;;;11.45;6.25;;;7.30;92.30;;;;;;5003691;28;20532;-79
2023/10/15 06:46:18;;;;;;;13.65;6.03;;;7.40;92.30;;;;;;5001259;28;20073;-73
2023/10/15 06:48:44;;;;;;;12.50;6.43;;;7.40;92.40;;;;;;5001767;28;20069;-74
2023/10/15 06:51:10;;;;;;;10.20;5.18;;;7.50;92.30;;;;;;4994010;28;20353;-74
2023/10/15 06:53:36;;;;;;;10.98;5.78;;;7.50;92.10;;;;;;4995317;28;20443;-77
2023/10/15 06:56:06;;;;;;;13.93;6.10;;;7.50;92.10;;;;;;4991977;28;20062;-74
2023/10/15 06:58:38;;;;;;;10.30;5.90;;;7.60;92.10;;;;;;4994853;28;20104;-73
2023/10/15 07:01:06;;;;;;;14.77;6.78;;;7.60;92.10;;;;;;4999768;28;20046;-74
2023/10/15 07:03:33;;;;;;;14.93;5.35;;;7.60;92.10;;;;;;4994593;28;20117;-80
2023/10/15 07:05:58;;;;;;;12.43;5.53;;;7.60;92.10;;;;;;4991756;28;20038;-74
2023/10/15 07:08:25;;;;;;;10.82;5.57;;;7.70;92.00;;;;;;4998488;28;20083;-73
2023/10/15 07:10:50;;;;;;;12.32;5.35;;;7.70;91.90;;;;;;4993925;28;20081;-73
2023/10/15 07:13:18;;;;;;;14.20;5.22;;;7.80;91.60;;;;;;4995916;28;20062;-74
2023/10/15 07:15:45;;;;;;;11.55;5.40;;;7.80;91.30;;;;;;4994404;28;20117;-78
2023/10/15 07:18:11;;;;;;;12.98;5.38;;;7.80;91.30;;;;;;4998399;28;20093;-79
2023/10/15 07:20:37;;;;;;;13.05;5.65;;;7.90;91.30;;;;;;4995685;28;20022;-74
2023/10/15 07:23:03;;;;;;;11.88;6.28;;;7.80;91.20;;;;;;4993159;28;20061;-80
2023/10/15 07:25:29;;;;;;;12.18;5.55;;;7.90;91.20;;;;;;4997717;28;20050;-74
2023/10/15 07:27:56;;;;;;;10.98;6.13;;;8.00;91.20;;;;;;4997610;28;20621;-76
2023/10/15 07:30:23;;;;;;;15.52;6.53;;;8.00;91.00;;;;;;4998052;28;20100;-80
2023/10/15 07:32:59;;;;;;;13.90;6.68;;;8.10;90.90;;;;;;5000577;28;20164;-74
2023/10/15 07:35:29;;;;;;;13.95;6.55;;;8.10;90.60;;;;;;4996314;28;20049;-80
2023/10/15 07:38:02;;;;;;;12.25;5.95;;;8.20;90.40;;;;;;5004844;28;20455;-74
2023/10/15 07:40:28;;;;;;;13.77;6.22;;;8.20;89.80;;;;;;5001569;28;20380;-73
2023/10/15 07:42:59;;;;;;;15.07;5.72;;;8.30;89.40;;;;;;5000225;28;20194;-77
2023/10/15 07:45:29;;;;;;;13.10;6.03;;;8.40;89.20;;;;;;5000714;28;20042;-73
2023/10/15 07:47:56;;;;;;;12.15;5.57;;;8.50;88.90;;;;;;5000718;28;20429;-78
2023/10/15 07:50:24;;;;;;;13.32;5.32;;;8.60;88.40;;;;;;5000126;28;20443;-82
2023/10/15 07:52:51;;;;;;;11.43;5.10;;;8.60;88.10;;;;;;5001680;28;20040;-74
2023/10/15 07:55:18;;;;;;;9.88;4.75;;;8.70;87.80;;;;;;5000194;28;20693;-74
2023/10/15 07:57:44;;;;;;;15.63;5.10;;;8.90;87.20;;;;;;5000844;28;20046;-76
2023/10/15 08:00:15;;;;;;;11.43;4.25;;;9.00;86.90;;;;;;5001532;28;20038;-75
2023/10/15 08:02:45;;;;;;;9.52;4.03;;;9.10;85.90;;;;;;4998548;28;20064;-73
2023/10/15 08:05:12;;;;;;;12.35;4.57;;;9.20;85.80;;;;;;4998702;28;20044;-77
2023/10/15 08:07:37;;;;;;;11.68;4.35;;;9.30;85.50;;;;;;5002989;28;20030;-76
2023/10/15 08:10:04;;;;;;;9.27;4.00;;;9.50;85.10;;;;;;4996262;28;20040;-73
2023/10/15 08:12:31;;;;;;;12.85;4.50;;;9.60;84.30;;;;;;4997600;28;20028;-76
2023/10/15 08:14:57;;;;;;;12.20;4.40;;;9.70;84.00;;;;;;5001294;28;20034;-74
2023/10/15 08:17:23;;;;;;;11.50;4.07;;;9.80;83.80;;;;;;5001019;28;20380;-74
2023/10/15 08:19:50;;;;;;;10.07;3.70;;;10.00;83.40;;;;;;4996893;28;20124;-76
2023/10/15 08:22:15;;;;;;;11.20;3.75;;;10.20;82.40;;;;;;5000020;28;20134;-75
2023/10/15 08:24:41;;;;;;;10.15;3.63;;;10.30;81.50;;;;;;4998896;28;20117;-75
2023/10/15 08:27:07;;;;;;;11.43;3.70;;;10.30;81.30;;;;;;5000502;28;20030;-74
2023/10/15 08:29:33;;;;;;;10.23;3.20;;;10.50;81.70;;;;;;4996618;28;20395;-75
2023/10/15 08:31:59;;;;;;;10.98;3.60;;;10.60;80.60;;;;;;4994074;28;20040;-76
2023/10/15 08:34:24;;;;;;;11.73;3.30;;;10.60;80.90;;;;;;5001101;28;20109;-74
2023/10/15 08:36:50;;;;;;;9.63;3.17;;;10.70;81.00;;;;;;4999458;28;20116;-74
2023/10/15 08:39:16;;;;;;;14.07;3.88;;;10.80;81.30;;;;;;4997391;28;20022;-77
2023/10/15 08:41:44;;;;;;;9.52;3.42;;;10.70;80.70;;;;;;4997547;28;20030;-75
2023/10/15 08:44:10;;;;;;;11.00;3.97;;;10.90;80.80;;;;;;4999300;28;20057;-77
2023/10/15 08:46:39;;;;;;;11.95;3.55;;;11.10;80.70;;;;;;5002999;28;20125;-73
2023/10/15 08:49:08;;;;;;;15.50;3.63;;;11.20;80.30;;;;;;4997748;28;20025;-73
2023/10/15 08:51:37;;;;;;;10.07;2.70;;;11.20;79.90;;;;;;4994630;28;20704;-73
2023/10/15 08:54:05;;;;;;;11.63;3.63;;;11.40;79.70;;;;;;5000251;28;20065;-77
2023/10/15 08:56:31;;;;;;;17.17;3.58;;;11.40;78.40;;;;;;4997387;28;20901;-76
2023/10/15 08:58:57;;;;;;;12.32;2.65;;;11.50;78.00;;;;;;4991603;28;20034;-75
2023/10/15 09:01:23;;;;;;;7.82;2.72;;;11.50;77.40;;;;;;4992902;28;20137;-79
2023/10/15 09:03:52;;;;;;;9.18;2.38;;;11.70;77.00;;;;;;4998864;28;20069;-75
2023/10/15 09:06:19;;;;;;;7.25;2.20;;;11.70;75.00;;;;;;4992158;28;20053;-74
2023/10/15 09:08:45;;;;;;;10.02;2.22;;;11.70;73.10;;;;;;5001452;28;20026;-74
2023/10/15 09:11:11;;;;;;;7.25;2.05;;;11.60;73.60;;;;;;4999611;28;20756;-74
2023/10/15 09:13:38;;;;;;;13.63;2.38;;;11.50;72.00;;;;;;5002325;28;20137;-73
2023/10/15 09:16:06;;;;;;;11.95;2.80;;;11.70;73.30;;;;;;4999659;28;20448;-77
2023/10/15 09:18:37;;;;;;;9.13;2.55;;;11.70;72.50;;;;;;4999337;28;20037;-74
2023/10/15 09:21:04;;;;;;;8.98;2.40;;;11.90;71.90;;;;;;4997060;28;20559;-74
2023/10/15 09:23:37;;;;;;;5.90;1.90;;;12.00;70.60;;;;;;4996093;28;20045;-75
2023/10/15 09:26:07;;;;;;;8.35;1.85;;;11.90;69.90;;;;;;4992526;28;20057;-75
2023/10/15 09:28:35;;;;;;;7.60;2.00;;;11.90;69.50;;;;;;5003794;28;20121;-73
2023/10/15 09:31:05;;;;;;;9.48;2.40;;;12.00;70.20;;;;;;5002225;28;20134;-74
2023/10/15 09:33:32;;;;;;;9.15;2.22;;;12.10;69.00;;;;;;4995279;28;20044;-74
2023/10/15 09:35:59;;;;;;;7.65;2.05;;;12.10;69.80;;;;;;4992161;28;20084;-74
2023/10/15 09:38:25;;;;;;;12.57;2.33;;;11.80;69.70;;;;;;4997162;28;20041;-76
2023/10/15 09:40:55;;;;;;;10.43;2.35;;;11.80;70.20;;;;;;4997559;28;20042;-76
2023/10/15 09:43:24;;;;;;;10.63;2.22;;;12.00;70.20;;;;;;4999112;28;20029;-74
2023/10/15 09:45:54;;;;;;;7.80;2.15;;;12.10;68.60;;;;;;4992553;28;20547;-76
2023/10/15 09:48:24;;;;;;;9.77;2.40;;;12.00;69.10;;;;;;4990140;28;20041;-73
2023/10/15 09:50:57;;;;;;;7.78;2.08;;;12.00;69.10;;;;;;4994416;28;20089;-77
2023/10/15 09:53:28;;;;;;;7.18;2.22;;;12.10;69.50;;;;;;5000195;28;20052;-78
2023/10/15 09:55:55;;;;;;;9.95;2.20;;;12.30;68.50;;;;;;4985385;28;21166;-78
2023/10/15 09:58:22;;;;;;;9.98;2.60;;;12.40;67.30;;;;;;4994732;28;20117;-75
2023/10/15 10:01:08;;;;;;;7.97;1.92;;;12.40;66.70;;;;;;4996368;28;20066;-79
2023/10/15 10:03:59;;;;;;;6.80;1.83;;;12.10;66.10;;;;;;4988643;28;20116;-75
2023/10/15 10:06:49;;;;;;;8.90;2.28;;;12.10;66.00;;;;;;4987227;28;20058;-74
2023/10/15 10:09:43;;;;;;;5.32;1.73;;;12.00;64.60;;;;;;4990881;28;20050;-75
2023/10/15 10:12:15;;;;;;;5.45;1.60;;;11.90;64.70;;;;;;4991559;28;20444;-78
2023/10/15 10:14:49;;;;;;;7.78;1.92;;;12.00;65.70;;;;;;4991271;28;20486;-75
2023/10/15 10:17:19;;;;;;;9.68;2.17;;;12.10;64.00;;;;;;4991821;28;20089;-75
2023/10/15 10:19:52;;;;;;;8.65;1.90;;;12.30;65.60;;;;;;4989537;28;20034;-77
2023/10/15 10:22:28;;;;;;;11.68;2.22;;;12.60;65.10;;;;;;4993454;28;20026;-78
2023/10/15 10:24:59;;;;;;;10.00;2.55;;;12.60;65.30;;;;;;4986710;28;20081;-75
2023/10/15 10:27:26;;;;;;;6.47;1.83;;;12.60;65.90;;;;;;4992099;28;20136;-75
2023/10/15 10:29:53;;;;;;;8.32;2.40;;;12.70;65.70;;;;;;4993488;28;20042;-77
2023/10/15 10:32:21;;;;;;;9.73;2.30;;;12.90;66.50;;;;;;4993040;28;20120;-77
2023/10/15 10:35:20;;;;;;;6.30;1.63;;;12.80;64.20;;;;;;4990106;28;20708;-73
2023/10/15 10:38:10;;;;;;;8.35;1.90;;;12.50;64.70;;;;;;4989742;28;20056;-72
2023/10/15 10:40:47;;;;;;;5.88;1.77;;;12.70;64.00;;;;;;4993002;28;20026;-77
2023/10/15 10:43:32;;;;;;;9.80;2.05;;;12.80;62.50;;;;;;4994727;28;20472;-75
2023/10/15 10:46:00;;;;;;;10.27;2.13;;;12.90;64.60;;;;;;4992959;28;20045;-76
2023/10/15 10:48:33;;;;;;;8.02;2.55;;;13.10;63.50;;;;;;4994747;28;20033;-75
2023/10/15 10:51:11;;;;;;;6.10;2.08;;;12.80;63.00;;;;;;4990345;28;20043;-75
2023/10/15 10:54:00;;;;;;;8.20;2.10;;;13.00;64.40;;;;;;4989379;28;20033;-74
2023/10/15 10:56:41;;;;;;;7.80;1.95;;;13.20;64.30;;;;;;4979218;28;20535;-74
2023/10/15 10:59:12;;;;;;;9.88;2.17;;;13.20;62.70;;;;;;4998830;28;20022;-76
2023/10/15 11:01:43;;;;;;;8.75;2.33;;;13.20;63.70;;;;;;5001077;28;20036;-75
2023/10/15 11:04:10;;;;;;;8.40;2.45;;;13.30;63.80;;;;;;4995068;28;20040;-73
2023/10/15 11:06:36;;;;;;;9.45;2.30;;;13.10;64.70;;;;;;5010938;28;20103;-76
2023/10/15 11:09:09;;;;;;;10.57;2.63;;;13.10;65.70;;;;;;5016816;28;21018;-75
2023/10/15 11:11:35;;;;;;;9.38;2.00;;;12.70;66.70;;;;;;5012857;28;20038;-74
2023/10/15 11:14:01;;;;;;;11.32;2.33;;;12.30;67.50;;;;;;5012103;28;20025;-74
2023/10/15 11:16:27;;;;;;;8.13;2.15;;;12.20;67.40;;;;;;5016407;28;20243;-74
2023/10/15 11:18:53;;;;;;;6.68;1.98;;;12.20;66.80;;;;;;5018203;28;20028;-73
2023/10/15 11:21:19;;;;;;;10.45;2.40;;;12.50;65.70;;;;;;5012668;28;20029;-77
2023/10/15 11:23:45;;;;;;;11.20;2.13;;;12.80;65.70;;;;;;5021416;28;20025;-75
2023/10/15 11:26:11;;;;;;;9.13;2.22;;;13.00;62.90;;;;;;5018709;28;20414;-74
2023/10/15 11:28:37;;;;;;;9.88;1.83;;;13.20;62.90;;;;;;5019666;28;20044;-76
2023/10/15 11:31:03;;;;;;;8.30;2.05;;;13.10;62.50;;;;;;5015855;28;20033;-75
2023/10/15 11:33:28;;;;;;;8.27;2.10;;;13.30;62.60;;;;;;5020555;28;20028;-75
2023/10/15 11:35:55;;;;;;;7.10;1.95;;;13.70;63.00;;;;;;5016164;28;20563;-74
2023/10/15 11:38:31;;;;;;;7.50;2.13;;;13.90;63.00;;;;;;5012949;28;20018;-75
2023/10/15 11:40:57;;;;;;;5.90;1.42;;;14.00;61.20;;;;;;5017070;28;20049;-75
2023/10/15 11:43:23;;;;;;;8.18;2.05;;;13.80;63.30;;;;;;5010645;28;20392;-77
2023/10/15 11:45:49;;;;;;;9.48;1.92;;;13.50;63.10;;;;;;5019061;28;20175;-75
2023/10/15 11:48:21;;;;;;;10.82;2.00;;;13.40;64.00;;;;;;5009142;28;20037;-77
2023/10/15 11:50:48;;;;;;;6.43;1.70;;;13.10;65.00;;;;;;5004608;28;20076;-79
2023/10/15 11:53:19;;;;;;;8.18;2.03;;;13.00;66.80;;;;;;5012064;28;20025;-77
2023/10/15 11:55:47;;;;;;;8.70;2.10;;;12.40;70.30;;;;;;5004325;28;20065;-74
2023/10/15 11:58:19;;;;;;;6.00;2.28;;;12.10;74.10;;;;;;5004865;28;20103;-76
2023/10/15 12:00:48;;;;;;;6.03;1.55;;;11.70;78.40;;;;;;5010838;28;20161;-74
2023/10/15 12:03:17;;;;;;;6.57;2.15;;;11.50;81.10;;;;;;5001617;28;20149;-73
2023/10/15 12:05:43;;;;;;;6.05;2.03;;;11.50;82.20;;;;;;5008508;28;20155;-77
2023/10/15 12:08:12;;;;;;;10.23;2.50;;;11.40;82.60;;;;;;5005152;28;20670;-78
2023/10/15 12:10:42;;;;;;;6.80;2.03;;;11.40;83.80;;;;;;5006239;28;20041;-76
2023/10/15 12:13:12;;;;;;;7.78;2.20;;;11.40;84.10;;;;;;5007173;28;20146;-75
2023/10/15 12:15:38;;;;;;;8.77;2.00;;;11.60;83.90;;;;;;5007798;28;20038;-74
2023/10/15 12:18:04;;;;;;;6.07;1.50;;;11.60;84.10;;;;;;5012843;28;20155;-76
2023/10/15 12:20:30;;;;;;;8.35;2.17;;;11.70;84.20;;;;;;5016204;28;20044;-74
2023/10/15 12:22:56;;;;;;;7.63;2.65;;;11.70;84.10;;;;;;5015137;28;20032;-73
2023/10/15 12:25:22;;;;;;;9.25;2.55;;;11.70;83.10;;;;;;5015869;28;20098;-77
2023/10/15 12:27:48;;;;;;;8.95;2.53;;;11.60;84.80;;;;;;5019155;28;20435;-74
2023/10/15 12:30:23;;;;;;;9.75;2.58;;;11.30;85.90;;;;;;5020014;28;20029;-77
2023/10/15 12:32:55;;;;;;;8.02;2.60;;;11.00;86.40;;;;;;5013688;28;20040;-76
2023/10/15 12:35:22;;;;;;;6.35;2.50;;;11.00;87.00;;;;;;5014680;28;20080;-74
2023/10/15 12:37:49;;;;;;;7.07;2.15;;;10.80;87.20;;;;;;5020117;28;20614;-77
2023/10/15 12:40:29;;;;;;;7.18;2.10;;;10.80;87.40;;;;;;5019430;28;20042;-74
2023/10/15 12:42:55;;;;;;;10.38;2.67;;;10.90;88.50;;;;;;5017230;28;20048;-74
2023/10/15 12:45:21;;;;;;;9.15;2.70;;;11.00;88.50;;;;;;5017013;28;20072;-73
2023/10/15 12:47:48;;;;;;;7.65;1.90;;;11.10;89.30;;;;;;5022153;28;20034;-73
2023/10/15 12:50:17;;;;;;;7.30;1.80;;;11.10;87.50;;;;;;5013479;28;20041;-73
2023/10/15 12:52:45;;;;;;;6.28;2.00;;;10.80;86.30;;;;;;5023884;28;20104;-73
2023/10/15 12:55:11;;;;;;;8.45;2.08;;;10.90;86.80;;;;;;5019751;28;20145;-72
2023/10/15 12:57:37;;;;;;;5.78;2.00;;;10.90;86.80;;;;;;5020957;28;20104;-73
2023/10/15 13:00:19;;;;;;;9.23;3.00;;;10.90;86.60;;;;;;5017213;28;20037;-75
2023/10/15 13:02:49;;;;;;;9.40;2.40;;;10.90;87.00;;;;;;5018506;28;20022;-77
2023/10/15 13:05:21;;;;;;;6.78;2.50;;;10.90;87.20;;;;;;5011263;28;20448;-73
2023/10/15 13:07:52;;;;;;;8.75;2.45;;;10.90;87.10;;;;;;5022201;28;20033;-72
2023/10/15 13:10:19;;;;;;;12.23;3.25;;;10.90;87.30;;;;;;5020450;28;20080;-72
2023/10/15 13:12:50;;;;;;;8.70;2.42;;;10.90;87.60;;;;;;5023979;28;20404;-75
2023/10/15 13:15:18;;;;;;;8.07;2.13;;;10.90;87.40;;;;;;5021653;28;20030;-72
2023/10/15 13:17:54;;;;;;;8.38;1.92;;;11.00;87.70;;;;;;5023242;28;20453;-74